sensor_id;sensor_type;location;lat;lon;timestamp;P1;durP1;ratioP1;P2;durP2;ratioP2
82409;SDS011;72049;51.766;6.846;2023-08-08T00:00:04;4.97;;;2.97;;
82409;SDS011;72049;51.766;6.846;2023-08-08T00:05:05;4.72;;;2.40;;
82409;SDS011;72049;51.766;6.846;2023-08-08T00:07:31;5.10;;;2.55;;
82409;SDS011;72049;51.766;6.846;2023-08-08T00:09:56;3.67;;;2.20;;
82409;SDS011;72049;51.766;6.846;2023-08-08T00:12:22;6.22;;;2.67;;
82409;SDS011;72049;51.766;6.846;2023-08-08T00:14:47;4.18;;;2.47;;
82409;SDS011;72049;51.766;6.846;2023-08-08T00:17:12;4.63;;;2.53;;
82409;SDS011;72049;51.766;6.846;2023-08-08T00:19:38;7.40;;;2.87;;
82409;SDS011;72049;51.766;6.846;2023-08-08T00:22:03;5.40;;;2.53;;
82409;SDS011;72049;51.766;6.846;2023-08-08T00:24:28;5.87;;;3.13;;
82409;SDS011;72049;51.766;6.846;2023-08-08T00:26:54;7.13;;;3.00;;
82409;SDS011;72049;51.766;6.846;2023-08-08T00:29:19;4.67;;;2.73;;
82409;SDS011;72049;51.766;6.846;2023-08-08T00:31:44;4.70;;;2.60;;
82409;SDS011;72049;51.766;6.846;2023-08-08T00:34:09;4.10;;;2.70;;
82409;SDS011;72049;51.766;6.846;2023-08-08T00:36:35;6.23;;;2.60;;
82409;SDS011;72049;51.766;6.846;2023-08-08T00:39:00;5.53;;;2.53;;
82409;SDS011;72049;51.766;6.846;2023-08-08T00:41:25;5.30;;;3.00;;
82409;SDS011;72049;51.766;6.846;2023-08-08T00:43:50;5.23;;;2.90;;
82409;SDS011;72049;51.766;6.846;2023-08-08T00:46:17;5.33;;;2.73;;
82409;SDS011;72049;51.766;6.846;2023-08-08T00:48:44;7.22;;;2.60;;
82409;SDS011;72049;51.766;6.846;2023-08-08T00:51:09;5.45;;;2.60;;
82409;SDS011;72049;51.766;6.846;2023-08-08T00:53:35;6.13;;;2.70;;
82409;SDS011;72049;51.766;6.846;2023-08-08T00:56:01;6.30;;;2.95;;
82409;SDS011;72049;51.766;6.846;2023-08-08T00:58:26;5.03;;;3.00;;
82409;SDS011;72049;51.766;6.846;2023-08-08T01:00:52;7.53;;;2.83;;
82409;SDS011;72049;51.766;6.846;2023-08-08T01:03:20;6.35;;;3.10;;
82409;SDS011;72049;51.766;6.846;2023-08-08T01:05:47;4.60;;;3.03;;
82409;SDS011;72049;51.766;6.846;2023-08-08T01:08:14;9.02;;;2.78;;
82409;SDS011;72049;51.766;6.846;2023-08-08T01:10:41;8.98;;;3.47;;
82409;SDS011;72049;51.766;6.846;2023-08-08T01:13:16;5.28;;;2.78;;
82409;SDS011;72049;51.766;6.846;2023-08-08T01:15:43;6.03;;;3.00;;
82409;SDS011;72049;51.766;6.846;2023-08-08T01:18:09;5.13;;;3.13;;
82409;SDS011;72049;51.766;6.846;2023-08-08T01:20:35;6.28;;;2.72;;
82409;SDS011;72049;51.766;6.846;2023-08-08T01:25:36;8.07;;;2.75;;
82409;SDS011;72049;51.766;6.846;2023-08-08T01:28:03;5.53;;;3.33;;
82409;SDS011;72049;51.766;6.846;2023-08-08T01:30:29;5.05;;;2.50;;
82409;SDS011;72049;51.766;6.846;2023-08-08T01:32:55;6.50;;;3.03;;
82409;SDS011;72049;51.766;6.846;2023-08-08T01:35:20;6.70;;;3.28;;
82409;SDS011;72049;51.766;6.846;2023-08-08T01:37:49;6.70;;;2.83;;
82409;SDS011;72049;51.766;6.846;2023-08-08T01:40:15;5.88;;;3.15;;
82409;SDS011;72049;51.766;6.846;2023-08-08T01:42:41;5.57;;;2.67;;
82409;SDS011;72049;51.766;6.846;2023-08-08T01:45:09;6.20;;;2.50;;
82409;SDS011;72049;51.766;6.846;2023-08-08T01:47:35;5.82;;;3.00;;
82409;SDS011;72049;51.766;6.846;2023-08-08T01:50:01;5.38;;;2.63;;
82409;SDS011;72049;51.766;6.846;2023-08-08T01:52:26;4.85;;;2.83;;
82409;SDS011;72049;51.766;6.846;2023-08-08T01:54:52;5.93;;;2.90;;
82409;SDS011;72049;51.766;6.846;2023-08-08T01:57:17;6.20;;;2.77;;
82409;SDS011;72049;51.766;6.846;2023-08-08T01:59:44;7.87;;;3.10;;
82409;SDS011;72049;51.766;6.846;2023-08-08T02:02:10;4.63;;;2.50;;
82409;SDS011;72049;51.766;6.846;2023-08-08T02:04:35;5.30;;;2.50;;
82409;SDS011;72049;51.766;6.846;2023-08-08T02:07:00;4.97;;;2.70;;
82409;SDS011;72049;51.766;6.846;2023-08-08T02:09:26;5.50;;;2.65;;
82409;SDS011;72049;51.766;6.846;2023-08-08T02:11:52;6.25;;;2.53;;
82409;SDS011;72049;51.766;6.846;2023-08-08T02:14:17;7.20;;;2.60;;
82409;SDS011;72049;51.766;6.846;2023-08-08T02:16:43;4.05;;;2.42;;
82409;SDS011;72049;51.766;6.846;2023-08-08T02:19:08;5.25;;;2.80;;
82409;SDS011;72049;51.766;6.846;2023-08-08T02:21:34;4.60;;;2.67;;
82409;SDS011;72049;51.766;6.846;2023-08-08T02:23:59;4.67;;;2.83;;
82409;SDS011;72049;51.766;6.846;2023-08-08T02:26:24;7.85;;;2.53;;
82409;SDS011;72049;51.766;6.846;2023-08-08T02:28:50;7.80;;;2.72;;
82409;SDS011;72049;51.766;6.846;2023-08-08T02:31:15;5.97;;;2.60;;
82409;SDS011;72049;51.766;6.846;2023-08-08T02:33:47;5.35;;;2.70;;
82409;SDS011;72049;51.766;6.846;2023-08-08T02:36:12;4.63;;;2.40;;
82409;SDS011;72049;51.766;6.846;2023-08-08T02:38:38;4.78;;;3.10;;
82409;SDS011;72049;51.766;6.846;2023-08-08T02:41:03;5.73;;;2.60;;
82409;SDS011;72049;51.766;6.846;2023-08-08T02:43:28;4.18;;;2.33;;
82409;SDS011;72049;51.766;6.846;2023-08-08T02:45:54;6.72;;;2.70;;
82409;SDS011;72049;51.766;6.846;2023-08-08T02:48:19;4.80;;;2.50;;
82409;SDS011;72049;51.766;6.846;2023-08-08T02:50:45;4.57;;;2.40;;
82409;SDS011;72049;51.766;6.846;2023-08-08T02:53:10;5.03;;;2.50;;
82409;SDS011;72049;51.766;6.846;2023-08-08T02:55:41;6.32;;;2.40;;
82409;SDS011;72049;51.766;6.846;2023-08-08T02:58:06;5.28;;;2.35;;
82409;SDS011;72049;51.766;6.846;2023-08-08T03:00:32;4.65;;;2.47;;
82409;SDS011;72049;51.766;6.846;2023-08-08T03:02:59;4.65;;;2.42;;
82409;SDS011;72049;51.766;6.846;2023-08-08T03:05:25;4.18;;;2.80;;
82409;SDS011;72049;51.766;6.846;2023-08-08T03:07:50;5.22;;;2.55;;
82409;SDS011;72049;51.766;6.846;2023-08-08T03:10:17;5.35;;;2.55;;
82409;SDS011;72049;51.766;6.846;2023-08-08T03:12:42;4.95;;;2.33;;
82409;SDS011;72049;51.766;6.846;2023-08-08T03:15:08;6.03;;;2.85;;
82409;SDS011;72049;51.766;6.846;2023-08-08T03:17:33;5.65;;;3.10;;
82409;SDS011;72049;51.766;6.846;2023-08-08T03:20:00;5.30;;;2.67;;
82409;SDS011;72049;51.766;6.846;2023-08-08T03:22:26;6.15;;;2.83;;
82409;SDS011;72049;51.766;6.846;2023-08-08T03:24:51;7.00;;;3.13;;
82409;SDS011;72049;51.766;6.846;2023-08-08T03:27:16;4.33;;;2.40;;
82409;SDS011;72049;51.766;6.846;2023-08-08T03:29:43;7.05;;;2.60;;
82409;SDS011;72049;51.766;6.846;2023-08-08T03:32:08;9.00;;;2.97;;
82409;SDS011;72049;51.766;6.846;2023-08-08T03:34:34;5.68;;;3.00;;
82409;SDS011;72049;51.766;6.846;2023-08-08T03:37:01;5.35;;;2.67;;
82409;SDS011;72049;51.766;6.846;2023-08-08T03:39:26;6.17;;;2.67;;
82409;SDS011;72049;51.766;6.846;2023-08-08T03:41:51;5.82;;;2.83;;
82409;SDS011;72049;51.766;6.846;2023-08-08T03:44:17;5.72;;;2.90;;
82409;SDS011;72049;51.766;6.846;2023-08-08T03:46:43;6.38;;;2.58;;
82409;SDS011;72049;51.766;6.846;2023-08-08T03:49:08;6.20;;;2.90;;
82409;SDS011;72049;51.766;6.846;2023-08-08T03:51:34;6.28;;;2.80;;
82409;SDS011;72049;51.766;6.846;2023-08-08T03:54:00;7.20;;;3.38;;
82409;SDS011;72049;51.766;6.846;2023-08-08T03:56:25;6.30;;;2.78;;
82409;SDS011;72049;51.766;6.846;2023-08-08T03:58:52;8.35;;;3.67;;
82409;SDS011;72049;51.766;6.846;2023-08-08T04:01:18;7.53;;;2.83;;
82409;SDS011;72049;51.766;6.846;2023-08-08T04:03:43;6.03;;;3.70;;
82409;SDS011;72049;51.766;6.846;2023-08-08T04:06:09;7.70;;;3.33;;
82409;SDS011;72049;51.766;6.846;2023-08-08T04:08:34;7.43;;;3.50;;
82409;SDS011;72049;51.766;6.846;2023-08-08T04:10:59;10.80;;;3.87;;
82409;SDS011;72049;51.766;6.846;2023-08-08T04:13:24;9.97;;;3.73;;
82409;SDS011;72049;51.766;6.846;2023-08-08T04:15:50;9.20;;;3.88;;
82409;SDS011;72049;51.766;6.846;2023-08-08T04:18:17;11.07;;;4.28;;
82409;SDS011;72049;51.766;6.846;2023-08-08T04:20:42;10.00;;;3.90;;
82409;SDS011;72049;51.766;6.846;2023-08-08T04:23:07;9.88;;;4.60;;
82409;SDS011;72049;51.766;6.846;2023-08-08T04:25:33;11.67;;;4.60;;
82409;SDS011;72049;51.766;6.846;2023-08-08T04:27:58;13.83;;;4.40;;
82409;SDS011;72049;51.766;6.846;2023-08-08T04:30:23;11.27;;;4.53;;
82409;SDS011;72049;51.766;6.846;2023-08-08T04:32:48;11.80;;;5.10;;
82409;SDS011;72049;51.766;6.846;2023-08-08T04:35:14;10.33;;;4.87;;
82409;SDS011;72049;51.766;6.846;2023-08-08T04:37:39;6.93;;;4.20;;
82409;SDS011;72049;51.766;6.846;2023-08-08T04:40:05;8.57;;;4.40;;
82409;SDS011;72049;51.766;6.846;2023-08-08T04:42:30;12.98;;;4.88;;
82409;SDS011;72049;51.766;6.846;2023-08-08T04:44:56;9.60;;;4.53;;
82409;SDS011;72049;51.766;6.846;2023-08-08T04:47:21;8.83;;;4.33;;
82409;SDS011;72049;51.766;6.846;2023-08-08T04:49:46;8.87;;;4.57;;
82409;SDS011;72049;51.766;6.846;2023-08-08T04:52:12;7.57;;;4.47;;
82409;SDS011;72049;51.766;6.846;2023-08-08T04:54:37;13.23;;;4.83;;
82409;SDS011;72049;51.766;6.846;2023-08-08T04:57:02;9.30;;;4.07;;
82409;SDS011;72049;51.766;6.846;2023-08-08T04:59:27;10.50;;;4.30;;
82409;SDS011;72049;51.766;6.846;2023-08-08T05:01:53;9.83;;;4.70;;
82409;SDS011;72049;51.766;6.846;2023-08-08T05:04:18;11.03;;;4.90;;
82409;SDS011;72049;51.766;6.846;2023-08-08T05:06:43;9.23;;;4.13;;
82409;SDS011;72049;51.766;6.846;2023-08-08T05:09:09;13.03;;;4.60;;
82409;SDS011;72049;51.766;6.846;2023-08-08T05:11:34;10.13;;;4.70;;
82409;SDS011;72049;51.766;6.846;2023-08-08T05:14:00;11.90;;;4.85;;
82409;SDS011;72049;51.766;6.846;2023-08-08T05:16:25;10.53;;;4.37;;
82409;SDS011;72049;51.766;6.846;2023-08-08T05:18:50;9.33;;;4.77;;
82409;SDS011;72049;51.766;6.846;2023-08-08T05:21:15;10.17;;;5.13;;
82409;SDS011;72049;51.766;6.846;2023-08-08T05:23:41;10.97;;;5.30;;
82409;SDS011;72049;51.766;6.846;2023-08-08T05:26:06;11.27;;;5.17;;
82409;SDS011;72049;51.766;6.846;2023-08-08T05:28:31;10.20;;;5.03;;
82409;SDS011;72049;51.766;6.846;2023-08-08T05:30:57;13.30;;;6.00;;
82409;SDS011;72049;51.766;6.846;2023-08-08T05:33:22;11.80;;;5.53;;
82409;SDS011;72049;51.766;6.846;2023-08-08T05:35:47;15.00;;;6.10;;
82409;SDS011;72049;51.766;6.846;2023-08-08T05:38:13;13.68;;;5.40;;
82409;SDS011;72049;51.766;6.846;2023-08-08T05:40:38;14.93;;;7.27;;
82409;SDS011;72049;51.766;6.846;2023-08-08T05:43:03;9.87;;;5.53;;
82409;SDS011;72049;51.766;6.846;2023-08-08T05:45:28;12.38;;;5.57;;
82409;SDS011;72049;51.766;6.846;2023-08-08T05:47:54;11.07;;;6.07;;
82409;SDS011;72049;51.766;6.846;2023-08-08T05:50:20;12.70;;;6.55;;
82409;SDS011;72049;51.766;6.846;2023-08-08T05:52:46;14.45;;;5.82;;
82409;SDS011;72049;51.766;6.846;2023-08-08T05:55:11;14.60;;;7.57;;
82409;SDS011;72049;51.766;6.846;2023-08-08T05:57:36;12.43;;;6.45;;
82409;SDS011;72049;51.766;6.846;2023-08-08T06:00:03;16.15;;;7.72;;
82409;SDS011;72049;51.766;6.846;2023-08-08T06:02:38;13.90;;;7.13;;
82409;SDS011;72049;51.766;6.846;2023-08-08T06:05:04;15.60;;;6.88;;
82409;SDS011;72049;51.766;6.846;2023-08-08T06:07:29;14.63;;;8.02;;
82409;SDS011;72049;51.766;6.846;2023-08-08T06:09:54;14.57;;;7.27;;
82409;SDS011;72049;51.766;6.846;2023-08-08T06:12:19;16.77;;;6.80;;
82409;SDS011;72049;51.766;6.846;2023-08-08T06:14:45;14.97;;;7.00;;
82409;SDS011;72049;51.766;6.846;2023-08-08T06:17:10;15.55;;;7.80;;
82409;SDS011;72049;51.766;6.846;2023-08-08T06:19:35;15.70;;;7.47;;
82409;SDS011;72049;51.766;6.846;2023-08-08T06:22:01;13.87;;;6.70;;
82409;SDS011;72049;51.766;6.846;2023-08-08T06:24:28;16.55;;;7.75;;
82409;SDS011;72049;51.766;6.846;2023-08-08T06:26:53;15.07;;;8.80;;
82409;SDS011;72049;51.766;6.846;2023-08-08T06:29:18;16.60;;;8.00;;
82409;SDS011;72049;51.766;6.846;2023-08-08T06:31:44;19.67;;;8.17;;
82409;SDS011;72049;51.766;6.846;2023-08-08T06:34:09;14.70;;;8.93;;
82409;SDS011;72049;51.766;6.846;2023-08-08T06:36:34;13.13;;;7.33;;
82409;SDS011;72049;51.766;6.846;2023-08-08T06:39:00;15.80;;;7.70;;
82409;SDS011;72049;51.766;6.846;2023-08-08T06:41:25;16.30;;;7.73;;
82409;SDS011;72049;51.766;6.846;2023-08-08T06:43:50;15.20;;;8.03;;
82409;SDS011;72049;51.766;6.846;2023-08-08T06:46:16;15.50;;;8.13;;
82409;SDS011;72049;51.766;6.846;2023-08-08T06:48:44;12.33;;;7.20;;
82409;SDS011;72049;51.766;6.846;2023-08-08T06:51:10;14.63;;;8.30;;
82409;SDS011;72049;51.766;6.846;2023-08-08T06:53:36;16.73;;;8.20;;
82409;SDS011;72049;51.766;6.846;2023-08-08T06:56:01;15.13;;;8.20;;
82409;SDS011;72049;51.766;6.846;2023-08-08T06:58:26;14.40;;;7.97;;
82409;SDS011;72049;51.766;6.846;2023-08-08T07:00:52;17.05;;;8.45;;
82409;SDS011;72049;51.766;6.846;2023-08-08T07:03:17;15.07;;;8.90;;
82409;SDS011;72049;51.766;6.846;2023-08-08T07:05:42;17.03;;;8.30;;
82409;SDS011;72049;51.766;6.846;2023-08-08T07:08:07;14.70;;;8.17;;
82409;SDS011;72049;51.766;6.846;2023-08-08T07:10:34;13.45;;;7.50;;
82409;SDS011;72049;51.766;6.846;2023-08-08T07:13:00;13.05;;;7.60;;
82409;SDS011;72049;51.766;6.846;2023-08-08T07:15:25;18.00;;;8.93;;
82409;SDS011;72049;51.766;6.846;2023-08-08T07:17:51;13.93;;;8.57;;
82409;SDS011;72049;51.766;6.846;2023-08-08T07:20:16;13.40;;;8.10;;
82409;SDS011;72049;51.766;6.846;2023-08-08T07:22:43;13.15;;;7.25;;
82409;SDS011;72049;51.766;6.846;2023-08-08T07:25:08;16.45;;;7.63;;
82409;SDS011;72049;51.766;6.846;2023-08-08T07:27:34;13.07;;;7.00;;
82409;SDS011;72049;51.766;6.846;2023-08-08T07:29:59;11.90;;;6.60;;
82409;SDS011;72049;51.766;6.846;2023-08-08T07:32:26;11.10;;;5.72;;
82409;SDS011;72049;51.766;6.846;2023-08-08T07:34:51;12.47;;;6.87;;
82409;SDS011;72049;51.766;6.846;2023-08-08T07:37:16;10.80;;;6.30;;
82409;SDS011;72049;51.766;6.846;2023-08-08T07:39:41;9.90;;;5.60;;
82409;SDS011;72049;51.766;6.846;2023-08-08T07:42:07;10.93;;;5.37;;
82409;SDS011;72049;51.766;6.846;2023-08-08T07:44:32;9.63;;;5.27;;
82409;SDS011;72049;51.766;6.846;2023-08-08T07:46:59;12.65;;;5.72;;
82409;SDS011;72049;51.766;6.846;2023-08-08T07:49:25;7.90;;;4.07;;
82409;SDS011;72049;51.766;6.846;2023-08-08T07:51:50;8.30;;;3.93;;
82409;SDS011;72049;51.766;6.846;2023-08-08T07:54:15;7.30;;;3.83;;
82409;SDS011;72049;51.766;6.846;2023-08-08T07:56:40;8.57;;;3.47;;
82409;SDS011;72049;51.766;6.846;2023-08-08T07:59:07;6.13;;;2.83;;
82409;SDS011;72049;51.766;6.846;2023-08-08T08:01:34;9.02;;;2.90;;
82409;SDS011;72049;51.766;6.846;2023-08-08T08:03:59;4.53;;;2.50;;
82409;SDS011;72049;51.766;6.846;2023-08-08T08:06:25;4.93;;;2.58;;
82409;SDS011;72049;51.766;6.846;2023-08-08T08:08:50;5.37;;;2.53;;
82409;SDS011;72049;51.766;6.846;2023-08-08T08:11:15;6.80;;;2.53;;
82409;SDS011;72049;51.766;6.846;2023-08-08T08:13:41;7.60;;;2.80;;
82409;SDS011;72049;51.766;6.846;2023-08-08T08:16:07;8.98;;;2.63;;
82409;SDS011;72049;51.766;6.846;2023-08-08T08:18:33;5.85;;;2.50;;
82409;SDS011;72049;51.766;6.846;2023-08-08T08:20:59;8.15;;;2.83;;
82409;SDS011;72049;51.766;6.846;2023-08-08T08:23:24;5.57;;;2.28;;
82409;SDS011;72049;51.766;6.846;2023-08-08T08:25:49;5.22;;;2.03;;
82409;SDS011;72049;51.766;6.846;2023-08-08T08:28:15;5.18;;;2.40;;
82409;SDS011;72049;51.766;6.846;2023-08-08T08:30:40;5.85;;;1.95;;
82409;SDS011;72049;51.766;6.846;2023-08-08T08:33:06;2.93;;;1.83;;
82409;SDS011;72049;51.766;6.846;2023-08-08T08:35:33;6.45;;;2.65;;
82409;SDS011;72049;51.766;6.846;2023-08-08T08:37:58;6.85;;;2.25;;
82409;SDS011;72049;51.766;6.846;2023-08-08T08:40:23;4.97;;;1.87;;
82409;SDS011;72049;51.766;6.846;2023-08-08T08:42:49;9.07;;;2.50;;
82409;SDS011;72049;51.766;6.846;2023-08-08T08:45:15;7.68;;;2.00;;
82409;SDS011;72049;51.766;6.846;2023-08-08T08:47:43;3.00;;;1.30;;
82409;SDS011;72049;51.766;6.846;2023-08-08T08:50:10;4.13;;;1.33;;
82409;SDS011;72049;51.766;6.846;2023-08-08T08:52:35;3.47;;;1.25;;
82409;SDS011;72049;51.766;6.846;2023-08-08T08:55:01;4.60;;;1.67;;
82409;SDS011;72049;51.766;6.846;2023-08-08T08:57:26;3.08;;;1.67;;
82409;SDS011;72049;51.766;6.846;2023-08-08T08:59:52;4.80;;;1.52;;
82409;SDS011;72049;51.766;6.846;2023-08-08T09:02:18;3.53;;;1.50;;
82409;SDS011;72049;51.766;6.846;2023-08-08T09:04:46;4.85;;;1.58;;
82409;SDS011;72049;51.766;6.846;2023-08-08T09:07:12;3.03;;;1.48;;
82409;SDS011;72049;51.766;6.846;2023-08-08T09:09:38;3.20;;;1.50;;
82409;SDS011;72049;51.766;6.846;2023-08-08T09:12:03;2.88;;;1.30;;
82409;SDS011;72049;51.766;6.846;2023-08-08T09:14:29;3.25;;;1.35;;
82409;SDS011;72049;51.766;6.846;2023-08-08T09:16:55;5.10;;;1.52;;
82409;SDS011;72049;51.766;6.846;2023-08-08T19:48:20;4.57;;;1.95;;
82409;SDS011;72049;51.766;6.846;2023-08-08T19:50:45;6.40;;;2.20;;
82409;SDS011;72049;51.766;6.846;2023-08-08T19:53:11;3.20;;;1.10;;
82409;SDS011;72049;51.766;6.846;2023-08-08T19:55:36;2.72;;;1.20;;
82409;SDS011;72049;51.766;6.846;2023-08-08T19:58:02;2.00;;;0.90;;
82409;SDS011;72049;51.766;6.846;2023-08-08T20:00:28;3.05;;;1.35;;
82409;SDS011;72049;51.766;6.846;2023-08-08T20:02:53;2.67;;;1.00;;
82409;SDS011;72049;51.766;6.846;2023-08-08T20:05:19;3.42;;;1.38;;
82409;SDS011;72049;51.766;6.846;2023-08-08T20:07:47;3.05;;;1.20;;
82409;SDS011;72049;51.766;6.846;2023-08-08T20:10:12;2.83;;;1.40;;
82409;SDS011;72049;51.766;6.846;2023-08-08T20:12:38;4.13;;;1.65;;
82409;SDS011;72049;51.766;6.846;2023-08-08T20:15:04;3.42;;;1.23;;
82409;SDS011;72049;51.766;6.846;2023-08-08T20:17:30;5.28;;;1.45;;
82409;SDS011;72049;51.766;6.846;2023-08-08T20:19:56;2.63;;;1.40;;
82409;SDS011;72049;51.766;6.846;2023-08-08T20:22:21;2.77;;;1.27;;
82409;SDS011;72049;51.766;6.846;2023-08-08T20:24:47;3.78;;;1.48;;
82409;SDS011;72049;51.766;6.846;2023-08-08T20:27:13;3.25;;;1.40;;
82409;SDS011;72049;51.766;6.846;2023-08-08T20:29:38;3.53;;;1.58;;
82409;SDS011;72049;51.766;6.846;2023-08-08T20:32:03;3.30;;;1.40;;
82409;SDS011;72049;51.766;6.846;2023-08-08T20:34:29;3.85;;;1.50;;
82409;SDS011;72049;51.766;6.846;2023-08-08T20:36:56;3.85;;;1.40;;
82409;SDS011;72049;51.766;6.846;2023-08-08T20:39:21;3.47;;;1.50;;
82409;SDS011;72049;51.766;6.846;2023-08-08T20:41:46;4.88;;;1.60;;
82409;SDS011;72049;51.766;6.846;2023-08-08T20:44:12;2.85;;;1.33;;
82409;SDS011;72049;51.766;6.846;2023-08-08T20:46:37;3.30;;;1.40;;
82409;SDS011;72049;51.766;6.846;2023-08-08T20:49:05;3.72;;;1.27;;
82409;SDS011;72049;51.766;6.846;2023-08-08T20:51:31;2.78;;;1.55;;
82409;SDS011;72049;51.766;6.846;2023-08-08T20:53:56;5.78;;;1.35;;
82409;SDS011;72049;51.766;6.846;2023-08-08T20:56:21;3.87;;;1.40;;
82409;SDS011;72049;51.766;6.846;2023-08-08T20:58:47;4.70;;;1.40;;
82409;SDS011;72049;51.766;6.846;2023-08-08T21:01:12;4.25;;;1.45;;
82409;SDS011;72049;51.766;6.846;2023-08-08T21:03:38;3.55;;;1.27;;
82409;SDS011;72049;51.766;6.846;2023-08-08T21:06:03;3.53;;;1.30;;
82409;SDS011;72049;51.766;6.846;2023-08-08T21:08:28;2.60;;;1.10;;
82409;SDS011;72049;51.766;6.846;2023-08-08T21:10:55;2.05;;;1.08;;
82409;SDS011;72049;51.766;6.846;2023-08-08T21:13:20;4.10;;;1.48;;
82409;SDS011;72049;51.766;6.846;2023-08-08T21:15:45;3.83;;;1.25;;
82409;SDS011;72049;51.766;6.846;2023-08-08T21:18:11;2.55;;;1.45;;
82409;SDS011;72049;51.766;6.846;2023-08-08T21:20:36;3.85;;;1.50;;
82409;SDS011;72049;51.766;6.846;2023-08-08T21:23:02;3.50;;;1.27;;
82409;SDS011;72049;51.766;6.846;2023-08-08T21:25:27;2.75;;;1.17;;
82409;SDS011;72049;51.766;6.846;2023-08-08T21:27:53;2.55;;;1.13;;
82409;SDS011;72049;51.766;6.846;2023-08-08T21:30:18;3.87;;;1.50;;
82409;SDS011;72049;51.766;6.846;2023-08-08T21:32:43;2.10;;;1.23;;
82409;SDS011;72049;51.766;6.846;2023-08-08T21:35:09;3.43;;;1.30;;
82409;SDS011;72049;51.766;6.846;2023-08-08T21:37:34;2.67;;;1.30;;
82409;SDS011;72049;51.766;6.846;2023-08-08T21:39:59;2.40;;;1.40;;
82409;SDS011;72049;51.766;6.846;2023-08-08T21:42:24;5.15;;;1.70;;
82409;SDS011;72049;51.766;6.846;2023-08-08T21:44:50;3.60;;;1.20;;
82409;SDS011;72049;51.766;6.846;2023-08-08T21:47:16;1.83;;;1.27;;
82409;SDS011;72049;51.766;6.846;2023-08-08T21:49:41;2.38;;;1.23;;
82409;SDS011;72049;51.766;6.846;2023-08-08T21:52:07;3.35;;;1.48;;
82409;SDS011;72049;51.766;6.846;2023-08-08T21:54:32;1.98;;;1.15;;
82409;SDS011;72049;51.766;6.846;2023-08-08T21:56:57;2.20;;;1.30;;
82409;SDS011;72049;51.766;6.846;2023-08-08T21:59:23;3.80;;;1.50;;
82409;SDS011;72049;51.766;6.846;2023-08-08T22:01:48;3.20;;;1.40;;
82409;SDS011;72049;51.766;6.846;2023-08-08T22:04:14;2.45;;;1.38;;
82409;SDS011;72049;51.766;6.846;2023-08-08T22:06:39;2.20;;;1.23;;
82409;SDS011;72049;51.766;6.846;2023-08-08T22:09:06;2.92;;;1.17;;
82409;SDS011;72049;51.766;6.846;2023-08-08T22:11:31;3.07;;;1.43;;
82409;SDS011;72049;51.766;6.846;2023-08-08T22:13:57;2.90;;;1.40;;
82409;SDS011;72049;51.766;6.846;2023-08-08T22:16:22;3.55;;;1.42;;
82409;SDS011;72049;51.766;6.846;2023-08-08T22:18:48;3.57;;;1.73;;
82409;SDS011;72049;51.766;6.846;2023-08-08T22:21:13;2.88;;;1.30;;
82409;SDS011;72049;51.766;6.846;2023-08-08T22:23:39;2.63;;;1.30;;
82409;SDS011;72049;51.766;6.846;2023-08-08T22:26:04;2.42;;;1.25;;
82409;SDS011;72049;51.766;6.846;2023-08-08T22:28:29;2.03;;;1.10;;
82409;SDS011;72049;51.766;6.846;2023-08-08T22:30:55;2.60;;;1.20;;
82409;SDS011;72049;51.766;6.846;2023-08-08T22:33:20;2.72;;;1.10;;
82409;SDS011;72049;51.766;6.846;2023-08-08T22:35:46;2.03;;;1.08;;
82409;SDS011;72049;51.766;6.846;2023-08-08T22:38:11;2.67;;;1.00;;
82409;SDS011;72049;51.766;6.846;2023-08-08T22:40:36;2.28;;;1.10;;
82409;SDS011;72049;51.766;6.846;2023-08-08T22:43:02;1.83;;;1.00;;
82409;SDS011;72049;51.766;6.846;2023-08-08T22:45:27;2.03;;;1.08;;
82409;SDS011;72049;51.766;6.846;2023-08-08T22:47:53;1.77;;;1.02;;
82409;SDS011;72049;51.766;6.846;2023-08-08T22:50:18;2.88;;;1.60;;
82409;SDS011;72049;51.766;6.846;2023-08-08T22:52:44;3.30;;;1.60;;
82409;SDS011;72049;51.766;6.846;2023-08-08T22:55:09;3.33;;;1.57;;
82409;SDS011;72049;51.766;6.846;2023-08-08T22:57:34;2.70;;;1.50;;
82409;SDS011;72049;51.766;6.846;2023-08-08T22:59:59;3.10;;;1.63;;
82409;SDS011;72049;51.766;6.846;2023-08-08T23:02:25;3.80;;;2.03;;
82409;SDS011;72049;51.766;6.846;2023-08-08T23:04:50;3.63;;;2.00;;
82409;SDS011;72049;51.766;6.846;2023-08-08T23:07:16;3.05;;;1.73;;
82409;SDS011;72049;51.766;6.846;2023-08-08T23:09:41;3.25;;;1.85;;
82409;SDS011;72049;51.766;6.846;2023-08-08T23:12:07;3.25;;;2.08;;
82409;SDS011;72049;51.766;6.846;2023-08-08T23:14:32;3.40;;;2.10;;
82409;SDS011;72049;51.766;6.846;2023-08-08T23:16:57;3.42;;;1.65;;
82409;SDS011;72049;51.766;6.846;2023-08-08T23:19:23;3.73;;;2.03;;
82409;SDS011;72049;51.766;6.846;2023-08-08T23:21:50;4.28;;;2.25;;
82409;SDS011;72049;51.766;6.846;2023-08-08T23:24:15;3.90;;;2.13;;
82409;SDS011;72049;51.766;6.846;2023-08-08T23:26:41;3.67;;;1.90;;
82409;SDS011;72049;51.766;6.846;2023-08-08T23:29:06;2.90;;;1.80;;
82409;SDS011;72049;51.766;6.846;2023-08-08T23:31:32;3.50;;;1.80;;
82409;SDS011;72049;51.766;6.846;2023-08-08T23:33:57;3.90;;;2.47;;
82409;SDS011;72049;51.766;6.846;2023-08-08T23:36:23;4.00;;;2.08;;
82409;SDS011;72049;51.766;6.846;2023-08-08T23:38:48;4.40;;;2.50;;
82409;SDS011;72049;51.766;6.846;2023-08-08T23:41:14;4.45;;;2.55;;
82409;SDS011;72049;51.766;6.846;2023-08-08T23:43:39;3.50;;;2.10;;
82409;SDS011;72049;51.766;6.846;2023-08-08T23:46:04;3.50;;;2.30;;
82409;SDS011;72049;51.766;6.846;2023-08-08T23:48:30;4.37;;;2.20;;
82409;SDS011;72049;51.766;6.846;2023-08-08T23:50:57;4.45;;;2.30;;
82409;SDS011;72049;51.766;6.846;2023-08-08T23:53:22;4.60;;;2.42;;
82409;SDS011;72049;51.766;6.846;2023-08-08T23:55:48;3.73;;;2.17;;
82409;SDS011;72049;51.766;6.846;2023-08-08T23:58:13;3.53;;;2.00;;
